Historyczne dane pomiarowe

Dodano dane terminowe – wersja testowa.

Dane z okresu 1951-2019

Wersja bazy: 1.34 [2019-03-16, lista zmian], aktualizacja planowana na 2019-04-15

Dane meteo z obszaru Polski uzyskane na podstawie danych udostępnionych przez Instytut Meteorologii i Gospodarki Wodnej – Państwowy Instytut Badawczy.

 

Wybierz Datę:    

       

TemperaturaWilgotnośćZachmurzenieWiatrCiśnienieWidzialnośćZjawiska
 Data    tng td wb rh cc ccl cl cm ch dir g1 g2 mslp ppp      
1999-08-01 00:00:00 5.3--- 4.8 5.197wxwxwx4wx--- 802.3 5.1---wxw1
1999-08-01 01:00:00 5.3--- 4.6 5.095wxwxwxwx3wx--- 802.2----wx
1999-08-01 02:00:00 5.4--- 5.1 5.398wxwxwxwx5wx--- 802.1----wx
1999-08-01 03:00:00 5.2--- 4.3 4.894wxwxwx5wx--- 802.2----wx
1999-08-01 04:00:00 5.1--- 4.8 5.098wxwxwx5wx--- 802.1----wx
1999-08-01 05:00:00 5.1--- 4.8 5.098wxwxwx6wx--- 802.2----wx
1999-08-01 06:00:00 5.4--- 5.0 5.297wxwxwx6wx--- 802.5 0.0---wx
1999-08-01 07:00:00 6.3--- 6.2 6.3100wxwxwx4wx--- 802.8----wx
1999-08-01 08:00:00 5.9--- 5.1 5.695wxwxwx5wx--- 803.1----wxw1
1999-08-01 09:00:00 5.9--- 5.9 5.9100wxwx3wx--- 803.2----wxw1
1999-08-01 10:00:00 5.1--- 5.1 5.1100wxwx3wx--- 803.2----wxw1
1999-08-01 11:00:00 5.8--- 2.7 4.481wxwxwxwx5wx--- 803.3----wxw1
1999-08-01 12:00:00 5.9--- 5.9 5.9100wxwx7wx--- 803.1 1.2---wxw1
1999-08-01 13:00:00 5.7--- 5.7 5.7100wxwxwx5wx--- 803.3----wxw1
1999-08-01 14:00:00 7.4--- 3.4 5.576wxwxwxwxwx5wx--- 803.2----wx
1999-08-01 15:00:00 8.4--- 3.8 6.273wxwxwxwxwx4wx--- 803.1----wxw1
1999-08-01 16:00:00 7.8--- 5.8 6.887wxwxwxwxwx4wx--- 803.1----wx
1999-08-01 17:00:00 6.3--- 6.2 6.3100wxwx5wx--- 803.0----wx
1999-08-01 18:00:00 5.8--- 4.8 5.494wxwxwxwx4wx--- 802.8 0.0---wxw1
1999-08-01 19:00:00 5.6--- 1.9 3.977wxwxwxwxwx5wx--- 803.1----wx
1999-08-01 20:00:00 5.0--- 3.1 4.188wxwxwx6wx--- 802.9----wx
1999-08-01 21:00:00 5.1--- 3.4 4.389wxwxwxwx7wx--- 803.0----wx
1999-08-01 22:00:00 5.1--- 3.4 4.389wxwxwxwxwx7wx--- 803.0----wx
1999-08-01 23:00:00 5.1--- 4.1 4.694wxwxwx7wx--- 802.9----wx

 

Źródłem pochodzenia danych jest Instytut Meteorologii i Gospodarki Wodnej – Państwowy Instytut Badawczy. Dane Instytutu Meteorologii i Gospodarki Wodnej – Państwowego Instytutu Badawczego zostały przetworzone.

Dane źródłowe można odnaleźć na stronie https://dane.imgw.pl